sensor_id;sensor_type;location;lat;lon;timestamp;P1;durP1;ratioP1;P2;durP2;ratioP2
30723;SDS011;17473;52.286;20.930;2023-03-01T00:01:18;52.50;;;27.90;;
30723;SDS011;17473;52.286;20.930;2023-03-01T00:03:50;47.00;;;25.83;;
30723;SDS011;17473;52.286;20.930;2023-03-01T00:06:19;57.07;;;28.00;;
30723;SDS011;17473;52.286;20.930;2023-03-01T00:08:47;58.47;;;28.27;;
30723;SDS011;17473;52.286;20.930;2023-03-01T00:11:16;54.90;;;28.13;;
30723;SDS011;17473;52.286;20.930;2023-03-01T00:13:47;59.00;;;28.07;;
30723;SDS011;17473;52.286;20.930;2023-03-01T00:16:27;52.60;;;26.97;;
30723;SDS011;17473;52.286;20.930;2023-03-01T00:19:00;53.30;;;27.70;;
30723;SDS011;17473;52.286;20.930;2023-03-01T00:21:27;53.23;;;28.03;;
30723;SDS011;17473;52.286;20.930;2023-03-01T00:23:55;54.97;;;27.83;;
30723;SDS011;17473;52.286;20.930;2023-03-01T00:26:24;50.67;;;26.97;;
30723;SDS011;17473;52.286;20.930;2023-03-01T00:28:52;54.37;;;26.43;;
30723;SDS011;17473;52.286;20.930;2023-03-01T00:31:21;53.37;;;26.57;;
30723;SDS011;17473;52.286;20.930;2023-03-01T00:33:53;54.17;;;27.50;;
30723;SDS011;17473;52.286;20.930;2023-03-01T00:36:26;51.03;;;27.77;;
30723;SDS011;17473;52.286;20.930;2023-03-01T00:38:56;58.50;;;29.80;;
30723;SDS011;17473;52.286;20.930;2023-03-01T00:41:24;63.43;;;31.57;;
30723;SDS011;17473;52.286;20.930;2023-03-01T00:43:54;62.30;;;29.50;;
30723;SDS011;17473;52.286;20.930;2023-03-01T00:46:23;67.30;;;30.77;;
30723;SDS011;17473;52.286;20.930;2023-03-01T00:48:53;63.87;;;32.27;;
30723;SDS011;17473;52.286;20.930;2023-03-01T00:51:25;62.43;;;30.80;;
30723;SDS011;17473;52.286;20.930;2023-03-01T00:53:55;62.67;;;31.23;;
30723;SDS011;17473;52.286;20.930;2023-03-01T00:56:24;61.07;;;30.30;;
30723;SDS011;17473;52.286;20.930;2023-03-01T00:58:52;64.27;;;30.43;;
30723;SDS011;17473;52.286;20.930;2023-03-01T01:01:21;59.80;;;29.67;;
30723;SDS011;17473;52.286;20.930;2023-03-01T01:03:55;66.50;;;31.07;;
30723;SDS011;17473;52.286;20.930;2023-03-01T01:06:35;65.47;;;30.30;;
30723;SDS011;17473;52.286;20.930;2023-03-01T01:09:06;62.07;;;30.73;;
30723;SDS011;17473;52.286;20.930;2023-03-01T01:11:35;61.93;;;30.23;;
30723;SDS011;17473;52.286;20.930;2023-03-01T01:14:05;66.20;;;32.93;;
30723;SDS011;17473;52.286;20.930;2023-03-01T01:16:32;67.27;;;32.33;;
30723;SDS011;17473;52.286;20.930;2023-03-01T01:18:59;65.43;;;31.97;;
30723;SDS011;17473;52.286;20.930;2023-03-01T01:21:27;64.93;;;32.13;;
30723;SDS011;17473;52.286;20.930;2023-03-01T01:23:54;63.87;;;31.60;;
30723;SDS011;17473;52.286;20.930;2023-03-01T01:26:32;63.40;;;32.17;;
30723;SDS011;17473;52.286;20.930;2023-03-01T01:29:01;65.83;;;32.50;;
30723;SDS011;17473;52.286;20.930;2023-03-01T01:31:30;61.30;;;30.97;;
30723;SDS011;17473;52.286;20.930;2023-03-01T01:34:00;60.20;;;29.70;;
30723;SDS011;17473;52.286;20.930;2023-03-01T01:36:29;64.77;;;32.07;;
30723;SDS011;17473;52.286;20.930;2023-03-01T01:38:57;64.37;;;30.37;;
30723;SDS011;17473;52.286;20.930;2023-03-01T01:41:25;68.33;;;31.73;;
30723;SDS011;17473;52.286;20.930;2023-03-01T01:47:01;66.50;;;31.63;;
30723;SDS011;17473;52.286;20.930;2023-03-01T01:49:40;66.87;;;30.97;;
30723;SDS011;17473;52.286;20.930;2023-03-01T01:52:14;64.90;;;33.07;;
30723;SDS011;17473;52.286;20.930;2023-03-01T01:54:59;67.27;;;33.53;;
30723;SDS011;17473;52.286;20.930;2023-03-01T01:57:39;60.97;;;31.30;;
30723;SDS011;17473;52.286;20.930;2023-03-01T02:00:17;70.17;;;33.13;;
30723;SDS011;17473;52.286;20.930;2023-03-01T02:02:48;61.30;;;30.50;;
30723;SDS011;17473;52.286;20.930;2023-03-01T02:05:26;69.57;;;33.20;;
30723;SDS011;17473;52.286;20.930;2023-03-01T02:07:54;63.70;;;31.53;;
30723;SDS011;17473;52.286;20.930;2023-03-01T02:10:24;61.03;;;30.13;;
30723;SDS011;17473;52.286;20.930;2023-03-01T02:12:54;67.40;;;32.40;;
30723;SDS011;17473;52.286;20.930;2023-03-01T02:15:23;64.73;;;31.87;;
30723;SDS011;17473;52.286;20.930;2023-03-01T02:17:50;64.30;;;30.47;;
30723;SDS011;17473;52.286;20.930;2023-03-01T02:20:23;60.63;;;29.47;;
30723;SDS011;17473;52.286;20.930;2023-03-01T02:23:06;61.63;;;29.20;;
30723;SDS011;17473;52.286;20.930;2023-03-01T02:28:25;68.37;;;30.10;;
30723;SDS011;17473;52.286;20.930;2023-03-01T02:31:16;56.17;;;29.53;;
30723;SDS011;17473;52.286;20.930;2023-03-01T02:34:05;59.70;;;29.50;;
30723;SDS011;17473;52.286;20.930;2023-03-01T02:36:38;59.37;;;29.13;;
30723;SDS011;17473;52.286;20.930;2023-03-01T02:39:45;56.00;;;29.03;;
30723;SDS011;17473;52.286;20.930;2023-03-01T02:42:20;60.13;;;29.23;;
30723;SDS011;17473;52.286;20.930;2023-03-01T02:44:52;56.60;;;28.37;;
30723;SDS011;17473;52.286;20.930;2023-03-01T02:47:20;57.80;;;28.70;;
30723;SDS011;17473;52.286;20.930;2023-03-01T02:49:47;66.53;;;27.63;;
30723;SDS011;17473;52.286;20.930;2023-03-01T02:57:33;57.07;;;27.97;;
30723;SDS011;17473;52.286;20.930;2023-03-01T03:00:06;57.33;;;27.60;;
30723;SDS011;17473;52.286;20.930;2023-03-01T03:02:46;56.93;;;28.70;;
30723;SDS011;17473;52.286;20.930;2023-03-01T03:05:23;54.97;;;26.53;;
30723;SDS011;17473;52.286;20.930;2023-03-01T03:07:56;62.10;;;27.00;;
30723;SDS011;17473;52.286;20.930;2023-03-01T03:10:30;60.83;;;27.97;;
30723;SDS011;17473;52.286;20.930;2023-03-01T03:13:06;53.83;;;27.20;;
30723;SDS011;17473;52.286;20.930;2023-03-01T03:15:36;54.10;;;27.53;;
30723;SDS011;17473;52.286;20.930;2023-03-01T03:18:06;55.80;;;28.43;;
30723;SDS011;17473;52.286;20.930;2023-03-01T03:20:38;59.53;;;28.73;;
30723;SDS011;17473;52.286;20.930;2023-03-01T03:23:07;57.57;;;28.20;;
30723;SDS011;17473;52.286;20.930;2023-03-01T03:25:35;56.90;;;27.40;;
30723;SDS011;17473;52.286;20.930;2023-03-01T03:28:04;59.83;;;28.43;;
30723;SDS011;17473;52.286;20.930;2023-03-01T03:30:37;59.73;;;28.50;;
30723;SDS011;17473;52.286;20.930;2023-03-01T03:33:07;61.27;;;28.37;;
30723;SDS011;17473;52.286;20.930;2023-03-01T03:35:40;56.63;;;28.10;;
30723;SDS011;17473;52.286;20.930;2023-03-01T03:38:10;59.53;;;28.30;;
30723;SDS011;17473;52.286;20.930;2023-03-01T03:43:17;59.87;;;27.40;;
30723;SDS011;17473;52.286;20.930;2023-03-01T03:45:48;58.17;;;26.43;;
30723;SDS011;17473;52.286;20.930;2023-03-01T03:48:17;56.83;;;27.37;;
30723;SDS011;17473;52.286;20.930;2023-03-01T03:50:49;59.10;;;27.10;;
30723;SDS011;17473;52.286;20.930;2023-03-01T03:53:19;61.53;;;29.43;;
30723;SDS011;17473;52.286;20.930;2023-03-01T03:55:48;56.37;;;27.77;;
30723;SDS011;17473;52.286;20.930;2023-03-01T03:58:15;54.70;;;27.93;;
30723;SDS011;17473;52.286;20.930;2023-03-01T04:00:46;64.50;;;29.53;;
30723;SDS011;17473;52.286;20.930;2023-03-01T04:03:16;54.60;;;28.40;;
30723;SDS011;17473;52.286;20.930;2023-03-01T04:05:46;61.03;;;29.63;;
30723;SDS011;17473;52.286;20.930;2023-03-01T04:08:14;62.37;;;29.57;;
30723;SDS011;17473;52.286;20.930;2023-03-01T04:10:42;64.70;;;30.07;;
30723;SDS011;17473;52.286;20.930;2023-03-01T04:13:12;56.60;;;27.87;;
30723;SDS011;17473;52.286;20.930;2023-03-01T04:15:50;65.33;;;30.10;;
30723;SDS011;17473;52.286;20.930;2023-03-01T04:18:19;56.97;;;28.93;;
30723;SDS011;17473;52.286;20.930;2023-03-01T04:20:48;58.87;;;29.63;;
30723;SDS011;17473;52.286;20.930;2023-03-01T04:23:19;62.97;;;29.50;;
30723;SDS011;17473;52.286;20.930;2023-03-01T04:25:50;62.37;;;29.17;;
30723;SDS011;17473;52.286;20.930;2023-03-01T04:28:27;55.13;;;28.33;;
30723;SDS011;17473;52.286;20.930;2023-03-01T04:31:07;59.63;;;29.03;;
30723;SDS011;17473;52.286;20.930;2023-03-01T04:34:01;66.47;;;30.07;;
30723;SDS011;17473;52.286;20.930;2023-03-01T04:36:28;68.57;;;30.80;;
30723;SDS011;17473;52.286;20.930;2023-03-01T04:38:57;65.43;;;32.33;;
30723;SDS011;17473;52.286;20.930;2023-03-01T04:41:24;69.80;;;32.37;;
30723;SDS011;17473;52.286;20.930;2023-03-01T04:43:52;66.47;;;31.13;;
30723;SDS011;17473;52.286;20.930;2023-03-01T04:46:20;72.60;;;32.40;;
30723;SDS011;17473;52.286;20.930;2023-03-01T04:48:47;68.53;;;31.73;;
30723;SDS011;17473;52.286;20.930;2023-03-01T04:51:15;68.47;;;32.93;;
30723;SDS011;17473;52.286;20.930;2023-03-01T04:53:43;65.77;;;31.13;;
30723;SDS011;17473;52.286;20.930;2023-03-01T04:56:10;69.13;;;32.57;;
30723;SDS011;17473;52.286;20.930;2023-03-01T04:58:40;74.87;;;35.37;;
30723;SDS011;17473;52.286;20.930;2023-03-01T05:01:08;89.60;;;40.67;;
30723;SDS011;17473;52.286;20.930;2023-03-01T05:03:44;94.60;;;44.13;;
30723;SDS011;17473;52.286;20.930;2023-03-01T05:06:18;96.50;;;45.40;;
30723;SDS011;17473;52.286;20.930;2023-03-01T05:08:46;93.20;;;43.73;;
30723;SDS011;17473;52.286;20.930;2023-03-01T05:11:13;90.17;;;42.07;;
30723;SDS011;17473;52.286;20.930;2023-03-01T05:13:41;86.23;;;41.63;;
30723;SDS011;17473;52.286;20.930;2023-03-01T05:16:08;90.63;;;42.87;;
30723;SDS011;17473;52.286;20.930;2023-03-01T05:18:39;86.70;;;43.40;;
30723;SDS011;17473;52.286;20.930;2023-03-01T05:21:08;90.07;;;42.80;;
30723;SDS011;17473;52.286;20.930;2023-03-01T05:23:38;90.33;;;42.77;;
30723;SDS011;17473;52.286;20.930;2023-03-01T05:26:06;90.77;;;40.87;;
30723;SDS011;17473;52.286;20.930;2023-03-01T05:28:47;82.43;;;38.80;;
30723;SDS011;17473;52.286;20.930;2023-03-01T05:31:14;84.37;;;35.83;;
30723;SDS011;17473;52.286;20.930;2023-03-01T05:33:42;79.70;;;36.53;;
30723;SDS011;17473;52.286;20.930;2023-03-01T05:36:09;69.00;;;35.13;;
30723;SDS011;17473;52.286;20.930;2023-03-01T05:38:37;80.13;;;36.80;;
30723;SDS011;17473;52.286;20.930;2023-03-01T05:41:04;81.50;;;35.83;;
30723;SDS011;17473;52.286;20.930;2023-03-01T05:43:31;69.93;;;32.37;;
30723;SDS011;17473;52.286;20.930;2023-03-01T05:46:00;68.97;;;33.30;;
30723;SDS011;17473;52.286;20.930;2023-03-01T05:48:28;65.00;;;32.07;;
30723;SDS011;17473;52.286;20.930;2023-03-01T05:50:58;75.17;;;33.87;;
30723;SDS011;17473;52.286;20.930;2023-03-01T05:53:26;80.07;;;33.67;;
30723;SDS011;17473;52.286;20.930;2023-03-01T05:55:54;74.27;;;33.30;;
30723;SDS011;17473;52.286;20.930;2023-03-01T05:58:21;65.37;;;32.27;;
30723;SDS011;17473;52.286;20.930;2023-03-01T06:00:48;79.03;;;35.10;;
30723;SDS011;17473;52.286;20.930;2023-03-01T06:03:17;66.37;;;32.30;;
30723;SDS011;17473;52.286;20.930;2023-03-01T06:05:44;68.17;;;32.70;;
30723;SDS011;17473;52.286;20.930;2023-03-01T06:08:12;72.20;;;33.47;;
30723;SDS011;17473;52.286;20.930;2023-03-01T06:10:40;72.13;;;33.27;;
30723;SDS011;17473;52.286;20.930;2023-03-01T06:13:07;73.57;;;35.67;;
30723;SDS011;17473;52.286;20.930;2023-03-01T06:15:34;71.20;;;33.97;;
30723;SDS011;17473;52.286;20.930;2023-03-01T06:18:02;75.47;;;36.30;;
30723;SDS011;17473;52.286;20.930;2023-03-01T06:20:29;68.97;;;32.50;;
30723;SDS011;17473;52.286;20.930;2023-03-01T06:22:56;65.10;;;31.33;;
30723;SDS011;17473;52.286;20.930;2023-03-01T06:25:24;73.10;;;32.90;;
30723;SDS011;17473;52.286;20.930;2023-03-01T06:27:53;71.07;;;34.37;;
30723;SDS011;17473;52.286;20.930;2023-03-01T06:30:21;68.40;;;34.30;;
30723;SDS011;17473;52.286;20.930;2023-03-01T06:32:50;62.03;;;30.97;;
30723;SDS011;17473;52.286;20.930;2023-03-01T06:35:18;71.07;;;33.50;;
30723;SDS011;17473;52.286;20.930;2023-03-01T06:37:47;60.57;;;31.27;;
30723;SDS011;17473;52.286;20.930;2023-03-01T06:40:14;60.37;;;30.30;;
30723;SDS011;17473;52.286;20.930;2023-03-01T06:42:43;59.17;;;30.73;;
30723;SDS011;17473;52.286;20.930;2023-03-01T06:45:16;56.70;;;30.67;;
30723;SDS011;17473;52.286;20.930;2023-03-01T06:47:45;57.20;;;29.57;;
30723;SDS011;17473;52.286;20.930;2023-03-01T06:50:13;57.90;;;30.60;;
30723;SDS011;17473;52.286;20.930;2023-03-01T06:52:41;62.57;;;31.50;;
30723;SDS011;17473;52.286;20.930;2023-03-01T06:55:11;60.27;;;30.87;;
30723;SDS011;17473;52.286;20.930;2023-03-01T06:57:39;60.87;;;29.37;;
30723;SDS011;17473;52.286;20.930;2023-03-01T07:00:06;59.97;;;29.90;;
30723;SDS011;17473;52.286;20.930;2023-03-01T07:02:34;60.40;;;29.10;;
30723;SDS011;17473;52.286;20.930;2023-03-01T07:05:01;53.90;;;29.50;;
30723;SDS011;17473;52.286;20.930;2023-03-01T07:07:29;53.03;;;28.37;;
30723;SDS011;17473;52.286;20.930;2023-03-01T07:09:56;57.90;;;28.43;;
30723;SDS011;17473;52.286;20.930;2023-03-01T07:12:23;57.47;;;29.83;;
30723;SDS011;17473;52.286;20.930;2023-03-01T07:14:50;50.63;;;26.97;;
30723;SDS011;17473;52.286;20.930;2023-03-01T07:17:17;62.20;;;29.27;;
30723;SDS011;17473;52.286;20.930;2023-03-01T07:19:45;53.03;;;28.47;;
30723;SDS011;17473;52.286;20.930;2023-03-01T07:22:12;52.17;;;28.40;;
30723;SDS011;17473;52.286;20.930;2023-03-01T07:24:39;52.00;;;28.67;;
30723;SDS011;17473;52.286;20.930;2023-03-01T07:27:08;60.50;;;29.45;;
30723;SDS011;17473;52.286;20.930;2023-03-01T07:29:36;52.25;;;28.75;;
30723;SDS011;17473;52.286;20.930;2023-03-01T07:32:03;55.67;;;29.30;;
30723;SDS011;17473;52.286;20.930;2023-03-01T07:34:31;50.78;;;27.38;;
30723;SDS011;17473;52.286;20.930;2023-03-01T07:36:59;49.95;;;28.52;;
30723;SDS011;17473;52.286;20.930;2023-03-01T07:39:26;48.13;;;27.42;;
30723;SDS011;17473;52.286;20.930;2023-03-01T07:41:53;52.45;;;27.52;;
30723;SDS011;17473;52.286;20.930;2023-03-01T07:44:20;54.08;;;28.38;;
30723;SDS011;17473;52.286;20.930;2023-03-01T07:46:47;46.88;;;26.98;;
30723;SDS011;17473;52.286;20.930;2023-03-01T07:49:14;60.45;;;26.92;;
30723;SDS011;17473;52.286;20.930;2023-03-01T07:51:42;48.65;;;25.42;;
30723;SDS011;17473;52.286;20.930;2023-03-01T07:54:09;46.50;;;26.85;;
30723;SDS011;17473;52.286;20.930;2023-03-01T07:56:36;45.92;;;26.60;;
30723;SDS011;17473;52.286;20.930;2023-03-01T07:59:03;43.20;;;25.50;;
30723;SDS011;17473;52.286;20.930;2023-03-01T08:01:30;40.05;;;23.83;;
30723;SDS011;17473;52.286;20.930;2023-03-01T08:03:57;44.33;;;24.95;;
30723;SDS011;17473;52.286;20.930;2023-03-01T08:06:25;42.88;;;23.83;;
30723;SDS011;17473;52.286;20.930;2023-03-01T08:08:52;44.90;;;23.60;;
30723;SDS011;17473;52.286;20.930;2023-03-01T08:11:21;38.50;;;20.85;;
30723;SDS011;17473;52.286;20.930;2023-03-01T08:13:49;43.13;;;21.88;;
30723;SDS011;17473;52.286;20.930;2023-03-01T08:16:19;41.25;;;21.40;;
30723;SDS011;17473;52.286;20.930;2023-03-01T08:18:46;34.35;;;20.80;;
30723;SDS011;17473;52.286;20.930;2023-03-01T08:21:14;34.42;;;20.20;;
30723;SDS011;17473;52.286;20.930;2023-03-01T08:23:43;33.15;;;19.52;;
30723;SDS011;17473;52.286;20.930;2023-03-01T08:26:12;33.60;;;19.20;;
30723;SDS011;17473;52.286;20.930;2023-03-01T08:28:46;30.48;;;18.10;;
30723;SDS011;17473;52.286;20.930;2023-03-01T08:31:16;33.95;;;18.00;;
30723;SDS011;17473;52.286;20.930;2023-03-01T08:33:48;27.80;;;16.25;;
30723;SDS011;17473;52.286;20.930;2023-03-01T08:36:25;27.35;;;16.73;;
30723;SDS011;17473;52.286;20.930;2023-03-01T08:38:56;32.03;;;17.10;;
30723;SDS011;17473;52.286;20.930;2023-03-01T08:41:24;35.00;;;17.77;;
30723;SDS011;17473;52.286;20.930;2023-03-01T08:43:52;30.50;;;15.93;;
30723;SDS011;17473;52.286;20.930;2023-03-01T08:46:26;26.17;;;15.45;;
30723;SDS011;17473;52.286;20.930;2023-03-01T08:48:55;28.88;;;15.85;;
30723;SDS011;17473;52.286;20.930;2023-03-01T08:51:23;22.33;;;14.07;;
30723;SDS011;17473;52.286;20.930;2023-03-01T08:53:51;24.10;;;13.90;;
30723;SDS011;17473;52.286;20.930;2023-03-01T08:56:19;25.38;;;12.80;;
30723;SDS011;17473;52.286;20.930;2023-03-01T08:58:46;24.08;;;14.10;;
30723;SDS011;17473;52.286;20.930;2023-03-01T09:01:16;22.83;;;12.60;;
30723;SDS011;17473;52.286;20.930;2023-03-01T09:03:45;22.58;;;12.88;;
30723;SDS011;17473;52.286;20.930;2023-03-01T09:06:13;19.17;;;11.75;;
30723;SDS011;17473;52.286;20.930;2023-03-01T09:08:42;21.45;;;12.60;;
30723;SDS011;17473;52.286;20.930;2023-03-01T09:11:13;23.13;;;12.48;;
30723;SDS011;17473;52.286;20.930;2023-03-01T09:13:47;18.58;;;12.27;;
30723;SDS011;17473;52.286;20.930;2023-03-01T09:16:16;26.20;;;12.88;;
30723;SDS011;17473;52.286;20.930;2023-03-01T09:18:48;24.20;;;12.07;;
30723;SDS011;17473;52.286;20.930;2023-03-01T09:21:21;26.83;;;12.57;;
30723;SDS011;17473;52.286;20.930;2023-03-01T09:24:05;23.67;;;13.35;;
30723;SDS011;17473;52.286;20.930;2023-03-01T09:26:39;23.23;;;12.25;;
30723;SDS011;17473;52.286;20.930;2023-03-01T09:29:06;24.95;;;12.85;;
30723;SDS011;17473;52.286;20.930;2023-03-01T09:31:35;23.73;;;12.95;;
30723;SDS011;17473;52.286;20.930;2023-03-01T09:34:03;20.45;;;12.55;;
30723;SDS011;17473;52.286;20.930;2023-03-01T09:36:30;21.27;;;12.30;;
30723;SDS011;17473;52.286;20.930;2023-03-01T09:38:58;22.45;;;12.95;;
30723;SDS011;17473;52.286;20.930;2023-03-01T09:41:38;22.90;;;12.90;;
30723;SDS011;17473;52.286;20.930;2023-03-01T09:44:27;20.08;;;12.43;;
30723;SDS011;17473;52.286;20.930;2023-03-01T09:47:15;22.23;;;11.98;;
30723;SDS011;17473;52.286;20.930;2023-03-01T09:50:14;21.92;;;12.70;;
30723;SDS011;17473;52.286;20.930;2023-03-01T09:55:31;23.55;;;13.13;;
30723;SDS011;17473;52.286;20.930;2023-03-01T10:04:36;18.40;;;11.02;;
30723;SDS011;17473;52.286;20.930;2023-03-01T10:07:38;18.50;;;11.63;;
30723;SDS011;17473;52.286;20.930;2023-03-01T10:10:32;22.00;;;11.93;;
30723;SDS011;17473;52.286;20.930;2023-03-01T10:13:24;22.13;;;11.73;;
30723;SDS011;17473;52.286;20.930;2023-03-01T10:16:19;23.83;;;12.27;;
30723;SDS011;17473;52.286;20.930;2023-03-01T10:19:00;20.67;;;12.73;;
30723;SDS011;17473;52.286;20.930;2023-03-01T10:21:31;25.95;;;13.85;;
30723;SDS011;17473;52.286;20.930;2023-03-01T10:24:13;24.05;;;14.82;;
30723;SDS011;17473;52.286;20.930;2023-03-01T10:26:58;30.58;;;14.20;;
30723;SDS011;17473;52.286;20.930;2023-03-01T10:30:14;27.65;;;15.30;;
30723;SDS011;17473;52.286;20.930;2023-03-01T10:33:00;23.52;;;14.52;;
30723;SDS011;17473;52.286;20.930;2023-03-01T10:35:46;23.40;;;13.48;;
30723;SDS011;17473;52.286;20.930;2023-03-01T10:38:15;19.65;;;12.10;;
30723;SDS011;17473;52.286;20.930;2023-03-01T10:40:54;17.52;;;10.60;;
30723;SDS011;17473;52.286;20.930;2023-03-01T10:43:45;18.60;;;10.60;;
30723;SDS011;17473;52.286;20.930;2023-03-01T10:46:29;20.98;;;12.38;;
30723;SDS011;17473;52.286;20.930;2023-03-01T10:51:51;23.48;;;14.80;;
30723;SDS011;17473;52.286;20.930;2023-03-01T10:54:20;24.30;;;12.68;;
30723;SDS011;17473;52.286;20.930;2023-03-01T10:56:53;23.55;;;12.10;;
30723;SDS011;17473;52.286;20.930;2023-03-01T11:04:58;16.98;;;10.00;;
30723;SDS011;17473;52.286;20.930;2023-03-01T11:07:29;13.60;;;8.95;;
30723;SDS011;17473;52.286;20.930;2023-03-01T11:09:56;17.13;;;9.50;;
30723;SDS011;17473;52.286;20.930;2023-03-01T11:12:23;18.25;;;9.63;;
30723;SDS011;17473;52.286;20.930;2023-03-01T11:14:54;19.15;;;10.98;;
30723;SDS011;17473;52.286;20.930;2023-03-01T11:17:30;20.05;;;11.80;;
30723;SDS011;17473;52.286;20.930;2023-03-01T11:22:45;17.02;;;10.27;;
30723;SDS011;17473;52.286;20.930;2023-03-01T11:25:25;19.55;;;9.55;;
30723;SDS011;17473;52.286;20.930;2023-03-01T11:27:59;13.23;;;7.97;;
30723;SDS011;17473;52.286;20.930;2023-03-01T11:39:24;13.25;;;6.78;;
30723;SDS011;17473;52.286;20.930;2023-03-01T11:45:32;17.70;;;9.05;;
30723;SDS011;17473;52.286;20.930;2023-03-01T11:51:34;12.65;;;7.85;;
30723;SDS011;17473;52.286;20.930;2023-03-01T12:15:08;15.30;;;8.65;;
30723;SDS011;17473;52.286;20.930;2023-03-01T12:30:17;20.05;;;10.90;;
30723;SDS011;17473;52.286;20.930;2023-03-01T12:49:59;17.95;;;10.02;;
30723;SDS011;17473;52.286;20.930;2023-03-01T12:55:08;16.85;;;10.88;;
30723;SDS011;17473;52.286;20.930;2023-03-01T12:58:13;20.50;;;11.50;;
30723;SDS011;17473;52.286;20.930;2023-03-01T13:17:57;19.15;;;9.95;;
30723;SDS011;17473;52.286;20.930;2023-03-01T13:26:05;18.73;;;10.40;;
30723;SDS011;17473;52.286;20.930;2023-03-01T13:33:43;21.92;;;11.60;;
30723;SDS011;17473;52.286;20.930;2023-03-01T13:38:55;33.15;;;11.80;;
30723;SDS011;17473;52.286;20.930;2023-03-01T13:41:58;21.90;;;10.15;;
30723;SDS011;17473;52.286;20.930;2023-03-01T13:44:29;24.90;;;11.32;;
30723;SDS011;17473;52.286;20.930;2023-03-01T13:52:32;17.40;;;10.07;;
30723;SDS011;17473;52.286;20.930;2023-03-01T13:55:03;23.38;;;10.65;;
30723;SDS011;17473;52.286;20.930;2023-03-01T14:00:59;20.73;;;11.95;;
30723;SDS011;17473;52.286;20.930;2023-03-01T14:03:31;19.20;;;11.32;;
30723;SDS011;17473;52.286;20.930;2023-03-01T14:06:12;16.65;;;10.05;;
30723;SDS011;17473;52.286;20.930;2023-03-01T14:08:47;19.55;;;10.80;;
30723;SDS011;17473;52.286;20.930;2023-03-01T14:17:43;20.55;;;10.98;;
30723;SDS011;17473;52.286;20.930;2023-03-01T14:22:50;19.88;;;13.52;;
30723;SDS011;17473;52.286;20.930;2023-03-01T14:25:28;21.98;;;12.82;;
30723;SDS011;17473;52.286;20.930;2023-03-01T14:28:10;25.08;;;13.45;;
30723;SDS011;17473;52.286;20.930;2023-03-01T14:30:57;29.20;;;13.65;;
30723;SDS011;17473;52.286;20.930;2023-03-01T14:38:42;20.98;;;11.60;;
30723;SDS011;17473;52.286;20.930;2023-03-01T14:41:21;20.40;;;13.20;;
30723;SDS011;17473;52.286;20.930;2023-03-01T14:43:53;21.45;;;13.10;;
30723;SDS011;17473;52.286;20.930;2023-03-01T14:46:32;24.02;;;11.85;;
30723;SDS011;17473;52.286;20.930;2023-03-01T14:49:07;23.83;;;12.55;;
30723;SDS011;17473;52.286;20.930;2023-03-01T14:52:06;19.42;;;11.20;;
30723;SDS011;17473;52.286;20.930;2023-03-01T14:54:46;18.83;;;11.38;;
30723;SDS011;17473;52.286;20.930;2023-03-01T14:57:23;19.10;;;11.40;;
30723;SDS011;17473;52.286;20.930;2023-03-01T14:59:53;22.58;;;12.50;;
30723;SDS011;17473;52.286;20.930;2023-03-01T15:02:24;20.23;;;12.35;;
30723;SDS011;17473;52.286;20.930;2023-03-01T15:04:55;20.42;;;13.48;;
30723;SDS011;17473;52.286;20.930;2023-03-01T15:07:35;26.20;;;12.10;;
30723;SDS011;17473;52.286;20.930;2023-03-01T15:10:07;29.55;;;12.57;;
30723;SDS011;17473;52.286;20.930;2023-03-01T15:12:51;25.88;;;11.77;;
30723;SDS011;17473;52.286;20.930;2023-03-01T15:15:30;24.48;;;12.50;;
30723;SDS011;17473;52.286;20.930;2023-03-01T15:18:03;22.17;;;12.88;;
30723;SDS011;17473;52.286;20.930;2023-03-01T15:20:50;19.17;;;11.55;;
30723;SDS011;17473;52.286;20.930;2023-03-01T15:25:54;24.10;;;12.10;;
30723;SDS011;17473;52.286;20.930;2023-03-01T15:28:26;24.02;;;13.27;;
30723;SDS011;17473;52.286;20.930;2023-03-01T15:31:18;27.38;;;12.88;;
30723;SDS011;17473;52.286;20.930;2023-03-01T15:34:07;24.10;;;12.65;;
30723;SDS011;17473;52.286;20.930;2023-03-01T15:36:40;21.50;;;13.52;;
30723;SDS011;17473;52.286;20.930;2023-03-01T15:42:09;28.58;;;13.88;;
30723;SDS011;17473;52.286;20.930;2023-03-01T15:44:42;25.65;;;13.93;;
30723;SDS011;17473;52.286;20.930;2023-03-01T15:47:27;21.60;;;13.48;;
30723;SDS011;17473;52.286;20.930;2023-03-01T15:49:58;24.70;;;14.05;;
30723;SDS011;17473;52.286;20.930;2023-03-01T15:52:39;24.33;;;13.70;;
30723;SDS011;17473;52.286;20.930;2023-03-01T15:55:19;19.55;;;12.57;;
30723;SDS011;17473;52.286;20.930;2023-03-01T16:00:29;26.77;;;13.75;;
30723;SDS011;17473;52.286;20.930;2023-03-01T16:02:56;23.85;;;14.88;;
30723;SDS011;17473;52.286;20.930;2023-03-01T16:05:25;29.98;;;14.95;;
30723;SDS011;17473;52.286;20.930;2023-03-01T16:07:58;23.92;;;13.90;;
30723;SDS011;17473;52.286;20.930;2023-03-01T16:10:26;28.95;;;13.55;;
30723;SDS011;17473;52.286;20.930;2023-03-01T16:12:54;28.77;;;15.10;;
30723;SDS011;17473;52.286;20.930;2023-03-01T16:15:22;32.17;;;13.93;;
30723;SDS011;17473;52.286;20.930;2023-03-01T16:17:58;33.03;;;16.30;;
30723;SDS011;17473;52.286;20.930;2023-03-01T16:20:26;21.30;;;12.67;;
30723;SDS011;17473;52.286;20.930;2023-03-01T16:23:03;26.80;;;14.30;;
30723;SDS011;17473;52.286;20.930;2023-03-01T16:25:33;30.03;;;16.30;;
30723;SDS011;17473;52.286;20.930;2023-03-01T16:28:01;35.37;;;16.43;;
30723;SDS011;17473;52.286;20.930;2023-03-01T16:30:35;29.27;;;16.70;;
30723;SDS011;17473;52.286;20.930;2023-03-01T16:33:04;27.73;;;15.50;;
30723;SDS011;17473;52.286;20.930;2023-03-01T16:35:52;29.93;;;15.70;;
30723;SDS011;17473;52.286;20.930;2023-03-01T16:38:19;40.35;;;17.58;;
30723;SDS011;17473;52.286;20.930;2023-03-01T16:40:47;37.27;;;15.80;;
30723;SDS011;17473;52.286;20.930;2023-03-01T16:43:16;30.30;;;15.07;;
30723;SDS011;17473;52.286;20.930;2023-03-01T16:45:44;38.23;;;16.03;;
30723;SDS011;17473;52.286;20.930;2023-03-01T16:48:11;37.23;;;16.43;;
30723;SDS011;17473;52.286;20.930;2023-03-01T16:50:39;31.37;;;16.63;;
30723;SDS011;17473;52.286;20.930;2023-03-01T16:53:06;32.30;;;16.30;;
30723;SDS011;17473;52.286;20.930;2023-03-01T16:55:33;34.43;;;15.70;;
30723;SDS011;17473;52.286;20.930;2023-03-01T16:58:01;34.77;;;15.70;;
30723;SDS011;17473;52.286;20.930;2023-03-01T17:00:28;31.37;;;16.30;;
30723;SDS011;17473;52.286;20.930;2023-03-01T17:02:57;31.23;;;15.93;;
30723;SDS011;17473;52.286;20.930;2023-03-01T17:05:24;28.43;;;16.10;;
30723;SDS011;17473;52.286;20.930;2023-03-01T17:07:52;32.50;;;17.33;;
30723;SDS011;17473;52.286;20.930;2023-03-01T17:10:21;30.90;;;17.00;;
30723;SDS011;17473;52.286;20.930;2023-03-01T17:12:49;36.63;;;17.17;;
30723;SDS011;17473;52.286;20.930;2023-03-01T17:15:16;34.20;;;15.90;;
30723;SDS011;17473;52.286;20.930;2023-03-01T17:17:43;29.23;;;16.90;;
30723;SDS011;17473;52.286;20.930;2023-03-01T17:20:11;29.23;;;16.63;;
30723;SDS011;17473;52.286;20.930;2023-03-01T17:22:38;29.67;;;17.03;;